Time;durP1;ratioP1;P1;durP2;ratioP2;P2;SDS_P1;SDS_P2;PMS_P1;PMS_P2;Temp;Humidity;BMP_temperature;BMP_pressure;BME280_temperature;BME280_humidity;BME280_pressure;Samples;Min_cycle;Max_cycle;Signal;HPM_P1;HPM_P2
2022/10/14 00:01:17;;;;;;;19.13;15.00;;;12.20;99.90;;;11.96;87.25;98046.50;5127998;27;21315;-83
2022/10/14 00:03:45;;;;;;;16.50;14.67;;;12.20;99.90;;;12.44;87.58;98131.69;5121219;27;21304;-79
2022/10/14 00:06:16;;;;;;;22.60;16.53;;;12.20;99.90;;;12.56;87.20;98129.03;5134392;27;21042;-78
2022/10/14 00:08:46;;;;;;;17.27;15.43;;;12.20;99.90;;;12.62;87.40;98124.59;5127709;27;20914;-80
2022/10/14 00:11:16;;;;;;;20.50;16.40;;;12.30;99.90;;;12.58;87.43;98118.00;5123945;27;20459;-81
2022/10/14 00:13:44;;;;;;;17.00;15.30;;;12.30;99.90;;;12.72;86.63;98124.91;5130469;27;20461;-80
2022/10/14 00:16:18;;;;;;;18.10;15.93;;;12.30;99.90;;;12.71;86.54;98128.69;5143050;27;20459;-81
2022/10/14 00:18:45;;;;;;;17.57;15.70;;;12.40;99.90;;;12.81;86.50;98127.31;5123063;27;20535;-80
2022/10/14 00:21:12;;;;;;;21.13;16.33;;;12.40;99.90;;;12.71;86.73;98107.00;5128551;27;20508;-82
2022/10/14 00:23:39;;;;;;;18.20;15.90;;;12.40;99.90;;;12.91;85.79;98113.22;5121350;27;20476;-81
2022/10/14 00:26:07;;;;;;;20.80;16.83;;;12.50;99.90;;;12.64;85.83;98071.00;5127840;27;20477;-82
2022/10/14 00:28:34;;;;;;;18.60;16.60;;;12.50;99.90;;;12.41;86.10;98039.19;5127903;27;20457;-82
2022/10/14 00:31:03;;;;;;;18.30;16.37;;;12.50;99.90;;;12.87;86.23;98123.69;5130793;27;20455;-81
2022/10/14 00:33:31;;;;;;;23.20;17.50;;;12.50;99.90;;;12.83;85.83;98130.66;5130940;27;20503;-81
2022/10/14 00:36:04;;;;;;;18.00;15.53;;;12.50;99.90;;;12.76;85.42;98103.59;5133729;27;20452;-80
2022/10/14 00:38:32;;;;;;;20.57;16.97;;;12.60;99.90;;;12.91;85.61;98122.19;5131671;27;20858;-81
2022/10/14 00:40:59;;;;;;;19.43;16.33;;;12.60;99.90;;;12.95;85.43;98126.09;5135929;27;20453;-82
2022/10/14 00:43:28;;;;;;;20.53;16.43;;;12.60;99.90;;;13.00;85.25;98126.25;5132863;27;20457;-81
2022/10/14 00:45:55;;;;;;;20.73;17.37;;;12.60;99.90;;;13.09;85.01;98128.63;5149964;27;20491;-81
2022/10/14 00:48:26;;;;;;;25.23;18.80;;;12.60;99.90;;;12.76;84.70;98071.09;5133519;27;20440;-80
2022/10/14 00:50:56;;;;;;;20.37;17.37;;;12.70;99.80;;;13.09;84.64;98120.50;5155700;27;20464;-79
2022/10/14 00:53:23;;;;;;;21.97;17.80;;;12.70;99.30;;;12.89;85.67;98125.13;5144712;27;20464;-78
2022/10/14 00:55:51;;;;;;;27.20;18.63;;;12.60;99.90;;;12.39;85.93;98028.59;5139981;27;20448;-79
2022/10/14 00:58:19;;;;;;;21.00;17.80;;;12.60;99.90;;;12.55;86.35;98058.81;5125713;27;20476;-77
2022/10/14 01:00:46;;;;;;;23.17;18.33;;;12.70;99.90;;;12.90;86.86;98125.94;5129593;27;20504;-78
2022/10/14 01:03:21;;;;;;;25.80;20.10;;;12.70;99.90;;;12.95;87.41;98131.50;5118136;27;20791;-80
2022/10/14 01:05:58;;;;;;;29.17;19.60;;;12.70;99.90;;;12.82;87.93;98134.41;5126624;27;20470;-76
2022/10/14 01:08:29;;;;;;;26.90;19.03;;;12.60;99.90;;;12.65;88.50;98101.66;5124723;27;20458;-75
2022/10/14 01:11:07;;;;;;;21.87;18.60;;;12.60;99.90;;;12.85;88.67;98121.22;5131680;27;20460;-77
2022/10/14 01:13:38;;;;;;;26.30;19.60;;;12.60;99.90;;;12.79;89.19;98108.56;5130812;27;21105;-77
2022/10/14 01:16:16;;;;;;;25.60;19.97;;;12.60;99.90;;;12.61;89.80;98110.25;5147852;27;20456;-78
2022/10/14 01:19:02;;;;;;;23.77;20.77;;;12.50;99.90;;;12.16;90.07;98030.06;5131152;27;20512;-77
2022/10/14 01:21:37;;;;;;;30.13;20.43;;;12.60;99.90;;;12.74;89.91;98117.38;5115341;27;20451;-77
2022/10/14 01:24:41;;;;;;;26.60;20.67;;;12.50;99.90;;;12.79;90.06;98107.72;5123204;27;20877;-77
2022/10/14 01:27:46;;;;;;;28.77;20.37;;;12.50;99.90;;;12.92;88.94;98102.13;5119953;27;20468;-78
2022/10/14 01:30:18;;;;;;;23.73;18.97;;;12.60;99.90;;;12.75;88.89;98072.94;5121778;27;20458;-77
2022/10/14 01:32:55;;;;;;;28.57;20.27;;;12.70;99.90;;;12.88;89.30;98107.19;5118530;27;21001;-83
2022/10/14 01:35:49;;;;;;;29.60;21.90;;;12.60;99.90;;;12.59;90.25;98073.56;5122616;27;20457;-81
2022/10/14 01:38:24;;;;;;;22.93;19.87;;;12.60;99.90;;;12.75;89.83;98100.06;5124807;27;20448;-84
2022/10/14 01:40:58;;;;;;;28.17;20.93;;;12.60;99.90;;;12.93;89.90;98109.22;5128130;27;20452;-79
2022/10/14 01:43:29;;;;;;;31.17;23.20;;;12.60;99.90;;;12.97;89.63;98104.16;5128804;27;20504;-82
2022/10/14 01:46:00;;;;;;;27.00;22.17;;;12.60;99.90;;;12.92;90.18;98102.13;5114159;27;20519;-81
2022/10/14 01:48:35;;;;;;;29.30;22.10;;;12.60;99.90;;;12.93;90.15;98103.78;5128393;27;20468;-80
2022/10/14 01:51:10;;;;;;;28.60;22.90;;;12.70;99.90;;;12.88;90.37;98100.94;5123348;27;20491;-80
2022/10/14 01:53:44;;;;;;;28.57;22.77;;;12.70;99.90;;;12.75;90.38;98099.25;5120029;27;20535;-78
2022/10/14 01:56:14;;;;;;;29.83;22.77;;;12.70;99.90;;;12.72;90.34;98080.69;5122404;27;20453;-80
2022/10/14 01:58:42;;;;;;;27.40;21.87;;;12.60;99.90;;;12.87;90.37;98102.00;5136578;27;20522;-79
2022/10/14 02:01:11;;;;;;;25.53;22.73;;;12.60;99.90;;;12.87;89.93;98099.28;5127356;27;20496;-80
2022/10/14 02:03:44;;;;;;;32.13;23.73;;;12.60;99.90;;;12.86;89.97;98098.44;5120199;27;20514;-81
2022/10/14 02:06:16;;;;;;;30.57;21.73;;;12.60;99.90;;;12.72;90.56;98096.97;5139477;27;20462;-76
2022/10/14 02:09:01;;;;;;;29.30;22.40;;;12.60;99.90;;;12.80;90.73;98102.09;5129911;27;20967;-81
2022/10/14 02:11:38;;;;;;;28.30;22.93;;;12.60;99.90;;;12.71;91.47;98107.00;5130032;27;20571;-79
2022/10/14 02:14:18;;;;;;;33.00;24.57;;;12.60;99.90;;;12.26;90.82;98017.91;5127262;27;20459;-79
2022/10/14 02:16:57;;;;;;;30.97;23.73;;;12.60;99.90;;;12.57;91.59;98086.53;5122916;27;20499;-82
2022/10/14 02:19:29;;;;;;;36.40;25.53;;;12.50;99.90;;;12.56;91.58;98093.00;5125362;27;20550;-78
2022/10/14 02:22:03;;;;;;;35.23;25.73;;;12.50;99.90;;;12.75;91.20;98094.63;5126398;27;21200;-78
2022/10/14 02:24:35;;;;;;;29.40;24.47;;;12.60;99.90;;;12.87;90.59;98089.25;5122710;27;20442;-81
2022/10/14 02:27:07;;;;;;;31.00;24.43;;;12.60;99.90;;;12.89;90.50;98097.19;5128864;27;20473;-82
2022/10/14 02:29:36;;;;;;;29.80;23.27;;;12.50;99.90;;;12.95;90.13;98090.03;5123187;27;20456;-79
2022/10/14 02:32:08;;;;;;;37.03;25.20;;;12.60;99.90;;;12.82;90.63;98091.03;5120540;28;20526;-78
2022/10/14 02:34:37;;;;;;;26.40;22.13;;;12.60;99.90;;;12.91;90.22;98086.94;5120661;27;20532;-78
2022/10/14 02:37:05;;;;;;;33.80;22.40;;;12.60;99.90;;;12.73;89.64;98047.13;5126090;27;20442;-77
2022/10/14 02:39:39;;;;;;;31.23;24.00;;;12.60;99.90;;;12.87;90.02;98074.91;5122903;28;20475;-79
2022/10/14 02:42:06;;;;;;;26.07;22.37;;;12.70;99.90;;;13.00;89.65;98082.00;5124742;28;20538;-77
2022/10/14 02:44:34;;;;;;;25.60;22.80;;;12.70;99.90;;;12.79;90.05;98064.34;5117180;27;20862;-79
2022/10/14 02:47:01;;;;;;;30.37;22.30;;;12.60;99.90;;;12.91;89.64;98077.97;5123081;28;20462;-79
2022/10/14 02:49:30;;;;;;;25.13;21.73;;;12.70;99.90;;;12.87;90.01;98074.91;5118762;28;21032;-78
2022/10/14 02:51:57;;;;;;;25.73;21.10;;;12.70;99.90;;;12.77;90.19;98072.72;5123859;27;20458;-78
2022/10/14 02:54:24;;;;;;;30.33;22.77;;;12.60;99.90;;;12.49;90.13;98029.91;5127876;27;20832;-79
2022/10/14 02:56:51;;;;;;;26.07;20.93;;;12.50;99.90;;;12.71;90.16;98063.63;5125914;27;20451;-81
2022/10/14 02:59:19;;;;;;;30.23;22.43;;;12.50;99.90;;;12.63;90.37;98054.97;5121094;27;20475;-78
2022/10/14 03:01:46;;;;;;;28.87;21.20;;;12.50;99.90;;;12.67;90.05;98046.16;5134278;27;20470;-77
2022/10/14 03:04:13;;;;;;;27.63;22.57;;;12.50;99.90;;;12.36;90.69;98006.53;5121597;27;20509;-80
2022/10/14 03:06:42;;;;;;;25.13;20.90;;;12.40;99.90;;;12.69;91.18;98054.91;5121252;27;20445;-80
2022/10/14 03:09:09;;;;;;;24.73;21.10;;;12.40;99.90;;;12.39;91.21;98023.16;5133476;27;20804;-79
2022/10/14 03:11:36;;;;;;;27.80;21.73;;;12.40;99.90;;;12.59;91.73;98065.44;5134121;27;20761;-77
2022/10/14 03:14:03;;;;;;;27.40;22.70;;;12.40;99.90;;;12.46;91.50;98045.56;5148029;27;20494;-85
2022/10/14 03:16:31;;;;;;;28.60;21.97;;;12.30;99.90;;;12.60;91.29;98056.25;5126368;27;20511;-79
2022/10/14 03:18:58;;;;;;;30.90;20.73;;;12.30;99.90;;;12.57;91.64;98054.00;5127893;27;20554;-82
2022/10/14 03:21:25;;;;;;;29.40;21.80;;;12.40;99.90;;;12.53;91.63;98067.16;5130563;27;20474;-78
2022/10/14 03:23:54;;;;;;;26.30;22.03;;;12.30;99.90;;;12.56;91.53;98061.28;5136622;27;20462;-77
2022/10/14 03:26:22;;;;;;;24.07;19.97;;;12.30;99.90;;;12.25;91.89;98032.50;5125219;27;20538;-78
2022/10/14 03:28:50;;;;;;;24.67;20.70;;;12.30;99.90;;;12.09;91.93;98013.09;5119437;27;20499;-79
2022/10/14 03:31:17;;;;;;;26.03;20.90;;;12.30;99.90;;;12.31;92.06;98047.84;5125415;27;20447;-80
2022/10/14 03:33:44;;;;;;;28.17;22.03;;;12.30;99.90;;;12.18;91.85;98016.31;5138505;27;20467;-79
2022/10/14 03:36:12;;;;;;;30.50;21.23;;;12.30;99.90;;;12.56;91.73;98066.72;5127879;27;20455;-81
2022/10/14 03:38:39;;;;;;;26.10;21.50;;;12.30;99.90;;;12.25;91.86;98032.50;5126773;27;20542;-81
2022/10/14 03:41:07;;;;;;;30.13;23.63;;;12.40;99.90;;;12.46;91.90;98050.19;5128343;27;20461;-79
2022/10/14 03:43:35;;;;;;;32.17;21.47;;;12.40;99.90;;;12.56;91.55;98061.28;5145123;27;20978;-79
2022/10/14 03:46:02;;;;;;;25.03;20.63;;;12.40;99.90;;;12.44;91.48;98033.31;5126341;27;20462;-78
2022/10/14 03:48:29;;;;;;;26.50;23.00;;;12.40;99.90;;;12.57;91.29;98045.88;5127034;27;20986;-79
2022/10/14 03:50:56;;;;;;;24.07;21.47;;;12.40;99.90;;;12.24;90.76;97988.31;5140583;27;20969;-80
2022/10/14 03:53:23;;;;;;;29.90;21.17;;;12.40;99.90;;;12.67;90.77;98046.16;5128401;27;20467;-81
2022/10/14 03:55:50;;;;;;;27.40;21.97;;;12.40;99.90;;;12.65;90.18;98036.59;5126387;27;20488;-78
2022/10/14 03:58:19;;;;;;;28.93;20.90;;;12.50;99.90;;;12.49;89.97;98003.66;5137399;27;20975;-79
2022/10/14 04:00:46;;;;;;;23.93;21.17;;;12.50;99.90;;;11.95;90.07;97924.91;5127508;27;20458;-82
2022/10/14 04:03:13;;;;;;;28.67;21.77;;;12.50;99.90;;;12.72;89.94;98043.59;5124883;27;20452;-85
2022/10/14 04:05:41;;;;;;;27.77;21.90;;;12.50;99.90;;;12.21;90.42;97969.81;5126238;27;20491;-78
2022/10/14 04:08:09;;;;;;;26.03;21.90;;;12.50;99.90;;;12.67;89.97;98023.66;5126401;27;20542;-78
2022/10/14 04:10:36;;;;;;;29.00;21.17;;;12.50;99.90;;;12.55;90.25;98016.28;5125630;27;20967;-78
2022/10/14 04:13:04;;;;;;;29.33;22.60;;;12.50;99.90;;;12.76;89.73;98033.13;5121667;27;20962;-81
2022/10/14 04:15:32;;;;;;;26.83;21.80;;;12.50;99.90;;;12.74;89.80;98033.34;5128417;27;20460;-78
2022/10/14 04:18:00;;;;;;;23.03;20.53;;;12.50;99.90;;;12.78;89.64;98035.59;5126241;27;20456;-81
2022/10/14 04:20:27;;;;;;;25.50;21.70;;;12.50;99.90;;;12.74;89.35;98033.34;5126025;27;20949;-77
2022/10/14 04:22:54;;;;;;;26.00;22.67;;;12.40;99.90;;;12.10;89.94;97940.78;5133444;27;20445;-80
2022/10/14 04:25:21;;;;;;;26.60;22.97;;;12.40;99.90;;;12.59;90.31;98024.78;5131756;27;20516;-80
2022/10/14 04:27:49;;;;;;;26.40;23.60;;;12.40;99.90;;;12.38;89.69;97983.59;5143656;27;20470;-81
2022/10/14 04:30:17;;;;;;;27.80;24.63;;;12.50;99.90;;;12.66;89.59;98025.53;5133124;27;20473;-79
2022/10/14 04:32:46;;;;;;;29.90;25.50;;;12.50;99.90;;;12.63;90.41;98028.69;5117650;27;20610;-76
2022/10/14 04:35:13;;;;;;;30.03;26.83;;;12.40;99.90;;;12.77;89.71;98031.22;5128938;27;20537;-80
2022/10/14 04:37:40;;;;;;;31.13;26.40;;;12.40;99.90;;;12.37;89.29;97957.56;5131941;27;20444;-82
2022/10/14 04:40:08;;;;;;;35.80;26.90;;;12.40;99.90;;;12.85;89.58;98031.72;5138444;27;20535;-76
2022/10/14 04:42:36;;;;;;;31.57;28.30;;;12.40;99.90;;;12.72;89.98;98016.47;5123260;27;20451;-76
2022/10/14 04:45:04;;;;;;;31.77;26.40;;;12.40;99.90;;;12.65;89.81;98009.50;5125715;27;21037;-76
2022/10/14 04:47:31;;;;;;;36.60;27.10;;;12.40;99.90;;;12.70;89.22;98001.50;5139071;27;20528;-76
2022/10/14 04:49:59;;;;;;;34.80;28.90;;;12.50;99.90;;;12.82;89.01;98021.34;5124011;27;20466;-75
2022/10/14 04:52:26;;;;;;;31.93;28.70;;;12.50;99.90;;;12.88;89.08;98015.00;5119446;27;20451;-75
2022/10/14 04:54:53;;;;;;;32.57;29.17;;;12.50;99.90;;;12.89;89.05;98010.41;5121680;27;20452;-80
2022/10/14 04:57:21;;;;;;;33.03;29.03;;;12.50;99.90;;;12.69;89.35;98006.09;5142681;27;20865;-74
2022/10/14 04:59:48;;;;;;;33.53;30.03;;;12.50;99.90;;;12.79;89.40;98015.56;5122321;27;20776;-75
2022/10/14 05:02:15;;;;;;;33.63;29.20;;;12.50;99.90;;;12.69;89.62;98003.41;5127514;27;20450;-77
2022/10/14 05:04:43;;;;;;;31.27;28.00;;;12.50;99.90;;;12.77;89.54;98020.38;5118411;27;20983;-77
2022/10/14 05:07:12;;;;;;;30.47;27.40;;;12.60;99.90;;;12.84;89.17;98008.38;5125775;27;20479;-80
2022/10/14 05:09:40;;;;;;;34.37;27.40;;;12.60;99.90;;;12.84;89.27;98002.16;5100777;27;20542;-78
2022/10/14 05:12:09;;;;;;;28.80;25.60;;;12.60;99.90;;;12.82;89.40;97996.94;5111434;27;20449;-85
2022/10/14 05:14:36;;;;;;;27.20;24.37;;;12.50;99.90;;;12.90;88.75;98001.22;5121219;27;20454;-79
2022/10/14 05:17:03;;;;;;;27.53;23.63;;;12.60;99.90;;;12.84;88.97;97996.72;5108608;27;20488;-77
2022/10/14 05:19:31;;;;;;;30.63;23.83;;;12.60;99.90;;;12.89;89.07;98005.00;5120739;27;20498;-77
2022/10/14 05:21:58;;;;;;;26.43;23.63;;;12.60;99.90;;;12.69;88.55;97973.56;5126540;27;20511;-78
2022/10/14 05:24:27;;;;;;;28.80;23.63;;;12.60;99.90;;;12.86;88.70;98000.84;5112847;27;20540;-76
2022/10/14 05:26:55;;;;;;;28.60;23.70;;;12.70;99.90;;;12.71;88.53;97959.78;5112648;27;20554;-80
2022/10/14 05:29:22;;;;;;;31.03;24.10;;;12.70;99.90;;;12.69;89.00;97999.84;5118724;27;20483;-79
2022/10/14 05:31:49;;;;;;;29.80;23.53;;;12.70;99.90;;;12.87;88.93;98002.50;5122478;27;20876;-79
2022/10/14 05:34:17;;;;;;;29.87;23.73;;;12.70;99.90;;;13.06;87.67;98004.31;5124771;27;20439;-80
2022/10/14 05:36:44;;;;;;;28.30;23.70;;;12.70;99.90;;;13.08;88.08;98002.22;5126056;27;20447;-81
2022/10/14 05:39:11;;;;;;;29.40;22.67;;;12.80;99.90;;;13.19;87.44;98012.25;5143692;27;21188;-78
2022/10/14 05:41:40;;;;;;;30.53;24.30;;;12.80;99.90;;;13.17;87.33;98007.06;5124053;27;20479;-79
2022/10/14 05:44:12;;;;;;;29.60;22.00;;;12.90;99.90;;;13.13;87.31;98000.44;5117107;27;20481;-79
2022/10/14 05:46:39;;;;;;;44.23;24.93;;;12.80;99.90;;;13.50;86.76;98002.19;5117455;27;20524;-78
2022/10/14 05:49:06;;;;;;;27.60;22.53;;;13.00;99.90;;;13.46;85.42;98009.97;5118745;27;20465;-80
2022/10/14 05:51:34;;;;;;;23.13;20.67;;;13.10;99.90;;;13.39;85.81;98013.81;5119801;27;20857;-78
2022/10/14 05:54:02;;;;;;;31.63;22.47;;;13.10;99.90;;;13.30;86.84;98011.47;5136146;27;20452;-80
2022/10/14 05:56:29;;;;;;;27.63;22.40;;;13.00;99.90;;;13.45;85.73;98008.31;5119434;27;20454;-78
2022/10/14 05:58:58;;;;;;;25.87;20.23;;;13.10;99.90;;;13.40;86.51;98016.31;5112840;27;20469;-79
2022/10/14 06:01:25;;;;;;;27.17;22.60;;;13.10;99.90;;;13.30;86.40;98002.50;5115403;27;20554;-80
2022/10/14 06:03:53;;;;;;;31.00;21.37;;;13.10;99.90;;;13.29;86.55;98007.09;5116261;27;20462;-80
2022/10/14 06:06:20;;;;;;;22.30;20.00;;;13.00;99.90;;;13.32;86.14;98017.47;5120572;27;20483;-80
2022/10/14 06:08:48;;;;;;;24.63;21.37;;;13.10;99.90;;;13.30;86.24;98008.75;5119777;27;20478;-79
2022/10/14 06:11:16;;;;;;;24.63;20.57;;;13.00;99.90;;;13.31;86.51;98021.25;5134081;27;20471;-80
2022/10/14 06:13:44;;;;;;;28.53;22.03;;;13.10;99.90;;;13.16;85.81;97999.97;5121897;27;20447;-79
2022/10/14 06:16:13;;;;;;;33.60;23.10;;;13.10;99.80;;;13.36;85.77;98008.88;5115441;27;20462;-79
2022/10/14 06:18:40;;;;;;;26.33;21.63;;;13.10;99.80;;;13.29;86.36;98012.53;5106655;27;20987;-79
2022/10/14 06:21:12;;;;;;;23.57;21.10;;;13.10;99.70;;;13.30;85.46;97992.47;5119335;27;20481;-81
2022/10/14 06:23:40;;;;;;;25.90;21.30;;;13.20;99.30;;;13.66;84.36;98016.13;5117396;27;21314;-80
2022/10/14 06:26:08;;;;;;;26.70;20.73;;;13.30;98.40;;;13.59;84.76;98017.09;5114688;27;20489;-79
2022/10/14 06:28:36;;;;;;;23.63;19.93;;;13.30;98.60;;;13.29;84.87;97960.97;5113309;27;20480;-79
2022/10/14 06:31:04;;;;;;;27.17;21.90;;;13.30;98.10;;;13.62;84.07;98015.75;5118820;27;20463;-80
2022/10/14 06:33:33;;;;;;;24.00;21.40;;;13.30;97.80;;;13.51;84.24;97995.69;5117221;27;20464;-79
2022/10/14 06:36:02;;;;;;;22.90;20.00;;;13.30;97.80;;;13.86;83.50;98013.88;5126412;28;20565;-80
2022/10/14 06:38:30;;;;;;;30.50;21.10;;;13.40;97.70;;;13.83;83.56;98019.78;5125712;28;20460;-80
2022/10/14 06:40:57;;;;;;;24.40;20.90;;;13.50;96.70;;;13.65;84.07;98009.88;5124822;28;20936;-80
2022/10/14 06:43:25;;;;;;;23.60;20.67;;;13.40;97.20;;;13.64;84.02;98013.63;5117059;27;20851;-79
2022/10/14 06:45:53;;;;;;;24.50;19.97;;;13.40;96.80;;;13.76;83.53;98012.81;5116982;28;20447;-80
2022/10/14 06:48:21;;;;;;;25.90;21.17;;;13.40;97.00;;;13.82;83.90;98018.13;5116705;28;20480;-79
2022/10/14 06:50:49;;;;;;;29.70;21.53;;;13.50;97.50;;;13.75;83.84;98012.00;5133494;27;20533;-80
2022/10/14 06:53:17;;;;;;;27.13;21.27;;;13.50;96.80;;;13.72;83.78;98004.31;5125521;28;21013;-86
2022/10/14 06:55:45;;;;;;;23.10;20.20;;;13.50;96.60;;;13.85;83.23;98003.25;5148494;27;20480;-81
2022/10/14 06:58:12;;;;;;;25.90;20.63;;;13.50;96.30;;;13.29;83.72;97950.13;5130164;28;20548;-79
2022/10/14 07:00:39;;;;;;;24.90;21.63;;;13.50;96.60;;;13.72;82.82;97974.44;5138345;27;20460;-78
2022/10/14 07:03:07;;;;;;;24.97;20.60;;;13.60;96.30;;;13.93;83.07;97999.38;5117732;27;20538;-78
2022/10/14 07:05:35;;;;;;;29.43;22.10;;;13.60;96.70;;;13.92;82.89;98008.56;5124767;28;20476;-81
2022/10/14 07:08:04;;;;;;;22.60;19.77;;;13.60;96.20;;;13.99;82.44;98009.25;5114244;28;20996;-77
2022/10/14 07:10:31;;;;;;;26.43;21.37;;;13.70;95.90;;;13.73;82.78;97970.69;5132183;27;20454;-79
2022/10/14 07:12:59;;;;;;;22.63;19.60;;;13.70;95.90;;;14.06;82.00;98001.00;5116922;28;20544;-79
2022/10/14 07:15:26;;;;;;;23.13;20.00;;;13.70;95.10;;;14.05;82.31;98005.63;5113910;28;20980;-77
2022/10/14 07:17:53;;;;;;;22.97;19.90;;;13.80;95.30;;;13.71;82.13;97953.78;5116444;28;20461;-79
2022/10/14 07:20:20;;;;;;;23.57;19.67;;;13.80;94.80;;;13.91;81.60;97969.72;5132513;27;20737;-78
2022/10/14 07:22:48;;;;;;;23.07;19.63;;;13.90;94.50;;;14.27;81.37;98004.97;5116098;28;20518;-79
2022/10/14 07:25:18;;;;;;;27.40;19.50;;;13.90;94.80;;;14.08;81.44;98005.13;5135837;27;21007;-79
2022/10/14 07:27:45;;;;;;;25.10;20.20;;;13.90;94.40;;;13.91;81.27;97963.47;5121144;27;20496;-77
2022/10/14 07:30:13;;;;;;;22.53;19.37;;;14.00;94.50;;;14.36;80.77;98006.25;5120571;28;20774;-78
2022/10/14 07:32:40;;;;;;;24.90;20.60;;;14.00;94.50;;;14.30;81.16;98001.75;5117683;27;20853;-77
2022/10/14 07:35:08;;;;;;;23.10;19.47;;;14.00;94.30;;;14.28;81.09;97998.47;5116140;28;20463;-79
2022/10/14 07:37:36;;;;;;;22.10;19.20;;;14.00;94.60;;;14.31;80.94;97992.53;5118348;27;20471;-77
2022/10/14 07:40:04;;;;;;;23.83;19.20;;;14.00;94.20;;;14.76;79.73;98003.78;5102895;27;20546;-81
2022/10/14 07:42:33;;;;;;;22.33;19.50;;;14.20;94.00;;;14.78;78.98;98007.06;5120391;27;20831;-79
2022/10/14 07:45:00;;;;;;;22.50;18.90;;;14.40;93.20;;;14.49;79.81;98009.78;5119792;27;20548;-78
2022/10/14 07:47:27;;;;;;;20.83;18.63;;;14.30;93.20;;;14.38;80.59;98000.56;5125132;27;20467;-77
2022/10/14 07:49:54;;;;;;;22.97;18.50;;;14.20;93.80;;;14.62;79.42;98014.91;5123808;27;20834;-78
2022/10/14 07:52:21;;;;;;;22.50;19.37;;;14.20;93.50;;;14.72;79.32;98014.34;5131877;27;20458;-77
2022/10/14 07:54:48;;;;;;;21.47;18.90;;;14.30;93.60;;;14.70;78.87;98022.69;5134861;27;20452;-78
2022/10/14 07:57:16;;;;;;;22.37;18.47;;;14.40;93.00;;;14.51;79.57;98026.66;5139951;27;20473;-76
2022/10/14 07:59:45;;;;;;;26.90;20.20;;;14.30;93.00;;;14.43;80.51;98023.25;5137394;27;20467;-77
2022/10/14 08:02:13;;;;;;;26.07;18.90;;;14.20;93.60;;;14.64;79.90;98029.09;5145694;27;20984;-76
2022/10/14 08:04:40;;;;;;;23.77;20.30;;;14.30;93.40;;;14.76;79.56;98022.81;5131158;27;20450;-80
2022/10/14 08:07:07;;;;;;;21.80;18.90;;;14.30;93.60;;;14.65;80.03;98030.75;5126532;27;20553;-79
2022/10/14 08:09:35;;;;;;;22.27;19.90;;;14.30;94.10;;;14.46;79.62;97970.28;5132221;27;20473;-79
2022/10/14 08:12:03;;;;;;;24.13;20.23;;;14.30;94.10;;;14.72;79.56;98022.50;5127503;27;20491;-79
2022/10/14 08:14:30;;;;;;;29.00;18.93;;;14.40;93.40;;;14.58;80.48;98025.47;5142302;27;20501;-78
2022/10/14 08:16:59;;;;;;;24.97;19.30;;;14.30;93.60;;;15.06;79.02;98019.84;5129821;27;20456;-78
2022/10/14 08:19:26;;;;;;;23.73;19.67;;;14.50;93.70;;;15.04;78.30;98022.00;5129631;27;20450;-80
2022/10/14 08:21:54;;;;;;;28.83;20.13;;;14.60;92.80;;;14.93;78.33;98003.81;5123250;27;20510;-79
2022/10/14 08:24:22;;;;;;;24.73;19.93;;;14.60;92.70;;;14.83;78.88;98015.34;5120834;27;20506;-80
2022/10/14 08:26:51;;;;;;;24.43;17.67;;;14.60;92.80;;;14.48;79.84;98013.53;5131633;27;20457;-81
2022/10/14 08:29:21;;;;;;;21.20;18.90;;;14.40;92.90;;;14.40;79.37;97966.66;5135659;27;20479;-77
2022/10/14 08:31:48;;;;;;;21.23;17.57;;;14.40;93.20;;;14.77;78.99;98017.13;5141578;27;20805;-79
2022/10/14 08:34:19;;;;;;;26.20;19.10;;;14.50;92.90;;;14.87;78.58;98017.34;5128934;27;20467;-76
2022/10/14 08:36:47;;;;;;;21.40;16.80;;;14.60;92.70;;;15.08;77.42;98005.97;5118213;27;20438;-78
2022/10/14 08:39:17;;;;;;;20.43;18.17;;;14.70;92.40;;;15.06;77.01;98008.13;5120364;27;20480;-79
2022/10/14 08:42:12;;;;;;;22.10;17.80;;;14.70;91.80;;;15.50;75.63;98008.31;5141995;27;20486;-81
2022/10/14 08:44:45;;;;;;;20.00;17.17;;;15.00;91.30;;;15.72;74.96;98004.84;5122312;27;20464;-81
2022/10/14 08:47:16;;;;;;;24.67;18.30;;;15.20;90.90;;;15.86;74.72;98005.31;5121811;27;20507;-79
2022/10/14 08:49:55;;;;;;;24.93;17.00;;;15.30;90.90;;;15.84;74.45;97996.56;5124909;27;21028;-80
2022/10/14 08:52:27;;;;;;;31.17;17.60;;;15.50;90.40;;;16.02;73.63;97997.41;5124863;27;20460;-79
2022/10/14 08:54:59;;;;;;;19.40;16.70;;;15.60;90.20;;;15.94;73.60;97995.94;5125323;27;20452;-77
2022/10/14 08:57:33;;;;;;;20.60;17.77;;;15.60;90.00;;;15.98;73.94;97991.63;5116521;27;21079;-79
2022/10/14 09:00:00;;;;;;;19.20;17.10;;;15.60;90.20;;;16.27;72.61;97986.00;5124118;27;20461;-78
2022/10/14 09:02:42;;;;;;;22.53;17.23;;;15.80;90.10;;;16.24;72.67;97984.63;5132440;27;20450;-79
2022/10/14 09:05:14;;;;;;;32.50;17.77;;;16.00;89.80;;;16.64;71.60;97979.06;5114883;27;20524;-79
2022/10/14 09:07:42;;;;;;;18.97;16.90;;;16.10;89.50;;;16.42;71.67;97988.91;5118434;27;20551;-80
2022/10/14 09:10:16;;;;;;;21.23;15.70;;;16.20;88.70;;;16.21;71.52;97978.84;5119339;27;20480;-80
2022/10/14 09:12:43;;;;;;;17.70;14.73;;;16.10;88.10;;;16.12;72.54;97982.00;5119476;27;20496;-77
2022/10/14 09:15:19;;;;;;;17.77;16.00;;;16.10;88.40;;;16.91;70.37;97979.09;5112140;27;21121;-80
2022/10/14 09:17:53;;;;;;;25.93;15.10;;;16.30;88.70;;;16.97;69.13;97980.78;5121978;27;20967;-81
2022/10/14 09:20:23;;;;;;;16.77;15.00;;;16.60;87.60;;;16.77;69.68;97966.94;5124205;27;20555;-78
2022/10/14 09:23:06;;;;;;;18.17;15.37;;;16.60;87.30;;;16.71;70.07;97977.78;5121932;27;20491;-80
2022/10/14 09:25:36;;;;;;;16.70;15.00;;;16.60;87.30;;;16.90;69.78;97985.59;5139720;27;20452;-78
2022/10/14 09:28:03;;;;;;;19.70;16.00;;;16.70;87.10;;;16.82;68.71;97936.97;5131002;27;20516;-76
2022/10/14 09:30:36;;;;;;;17.83;14.90;;;16.90;86.80;;;17.10;68.64;97978.75;5130823;27;20466;-78
2022/10/14 09:33:05;;;;;;;15.63;13.93;;;16.90;86.70;;;17.40;68.08;97983.63;5121562;27;20478;-76
2022/10/14 09:35:37;;;;;;;16.27;13.83;;;16.90;86.70;;;17.27;67.40;97973.13;5118324;27;20500;-75
2022/10/14 09:38:06;;;;;;;15.30;12.57;;;17.00;85.90;;;17.55;66.60;97980.19;5124712;27;21245;-76
2022/10/14 09:40:38;;;;;;;14.33;12.93;;;17.10;85.80;;;17.28;67.31;97970.16;5113989;27;20942;-77
2022/10/14 09:43:16;;;;;;;13.33;11.47;;;17.00;85.70;;;17.40;66.65;97971.91;5110551;27;20461;-75
2022/10/14 09:45:52;;;;;;;13.67;12.30;;;17.10;85.40;;;17.45;66.34;97961.00;5118232;27;20546;-78
2022/10/14 09:48:32;;;;;;;16.43;12.70;;;17.10;85.60;;;17.37;67.06;97956.84;5123322;27;20461;-76
2022/10/14 09:51:03;;;;;;;16.40;11.10;;;17.10;85.40;;;17.64;66.23;97971.50;5137171;27;20501;-76
2022/10/14 09:53:34;;;;;;;12.83;11.30;;;17.30;85.20;;;17.61;65.77;97972.88;5125708;27;21247;-77
2022/10/14 09:56:04;;;;;;;13.03;11.10;;;17.40;84.80;;;18.20;64.75;97973.78;5120062;27;20442;-77
2022/10/14 09:58:37;;;;;;;10.63;9.53;;;17.60;85.10;;;17.95;64.36;97983.47;5118062;27;20462;-76
2022/10/14 10:01:04;;;;;;;13.10;10.50;;;17.70;84.00;;;18.22;63.48;97968.03;5114595;27;20451;-76
2022/10/14 10:03:35;;;;;;;11.33;9.73;;;17.80;83.80;;;18.56;62.04;97986.75;5125873;27;20978;-77
2022/10/14 10:06:07;;;;;;;11.43;9.17;;;18.10;83.10;;;18.41;61.76;97969.19;5111713;27;20465;-78
2022/10/14 10:08:37;;;;;;;10.63;8.73;;;18.20;82.30;;;18.21;62.54;97958.19;5108513;27;20458;-78
2022/10/14 10:11:07;;;;;;;11.77;9.83;;;18.10;82.20;;;18.38;62.57;97961.53;5117778;27;20465;-77
2022/10/14 10:13:43;;;;;;;10.50;9.30;;;18.00;82.60;;;18.47;62.41;97959.09;5118296;27;20470;-76
2022/10/14 10:16:23;;;;;;;11.63;8.70;;;18.00;82.60;;;18.33;61.97;97950.59;5111109;27;20460;-76